createdAt,value
2022-07-27T00:01:27.865Z,13.95
2022-07-27T00:03:57.188Z,14.01
2022-07-27T00:06:26.624Z,14.01
2022-07-27T00:08:55.473Z,14.05
2022-07-27T00:11:24.803Z,14.11
2022-07-27T00:13:53.806Z,14.19
2022-07-27T00:16:23.627Z,14.19
2022-07-27T00:18:53.835Z,14.21
2022-07-27T00:21:22.846Z,14.18
2022-07-27T00:23:51.827Z,14.17
2022-07-27T00:26:21.371Z,14.14
2022-07-27T00:28:50.889Z,14.11
2022-07-27T00:31:21.962Z,14.02
2022-07-27T00:33:52.822Z,13.92
2022-07-27T00:36:26.661Z,13.89
2022-07-27T00:38:55.712Z,13.83
2022-07-27T00:41:27.332Z,13.85
2022-07-27T00:44:00.929Z,13.88
2022-07-27T00:46:31.079Z,13.88
2022-07-27T00:49:01.828Z,13.88
2022-07-27T00:51:31.449Z,13.86
2022-07-27T00:54:00.765Z,13.91
2022-07-27T00:56:29.753Z,13.93
2022-07-27T00:58:58.903Z,13.96
2022-07-27T01:01:29.876Z,14.03
2022-07-27T01:03:58.873Z,14.09
2022-07-27T01:06:32.711Z,14.09
2022-07-27T01:09:16.679Z,14.10
2022-07-27T01:11:46.097Z,14.12
2022-07-27T01:14:18.082Z,14.13
2022-07-27T01:16:47.742Z,14.13
2022-07-27T01:19:17.094Z,14.12
2022-07-27T01:21:47.211Z,14.13
2022-07-27T01:24:15.956Z,14.17
2022-07-27T01:26:46.395Z,14.15
2022-07-27T01:29:18.032Z,14.19
2022-07-27T01:31:47.350Z,14.16
2022-07-27T01:34:16.420Z,14.14
2022-07-27T01:36:47.447Z,14.16
2022-07-27T01:39:17.388Z,14.10
2022-07-27T01:41:47.364Z,14.07
2022-07-27T01:44:16.961Z,14.08
2022-07-27T01:46:46.772Z,14.09
2022-07-27T01:49:16.608Z,14.08
2022-07-27T01:51:47.591Z,14.08
2022-07-27T01:54:18.213Z,14.09
2022-07-27T01:56:47.038Z,14.08
2022-07-27T01:59:17.285Z,14.04
2022-07-27T02:01:47.856Z,14.03
2022-07-27T02:04:18.428Z,14.09
2022-07-27T02:06:54.977Z,14.09
2022-07-27T02:09:26.234Z,14.07
2022-07-27T02:12:12.708Z,14.04
2022-07-27T02:14:41.461Z,14.09
2022-07-27T02:17:10.589Z,14.05
2022-07-27T02:19:41.158Z,14.04
2022-07-27T02:22:12.899Z,14.04
2022-07-27T02:24:42.060Z,14.02
2022-07-27T02:27:10.946Z,13.97
2022-07-27T02:29:39.945Z,13.89
2022-07-27T02:32:09.617Z,13.81
2022-07-27T02:34:39.162Z,13.78
2022-07-27T02:37:08.371Z,13.70
2022-07-27T02:39:38.665Z,13.67
2022-07-27T02:42:08.255Z,13.68
2022-07-27T02:44:37.300Z,13.80
2022-07-27T02:47:06.202Z,13.83
2022-07-27T02:49:35.253Z,13.84
2022-07-27T02:52:05.238Z,13.88
2022-07-27T02:54:35.509Z,13.89
2022-07-27T02:57:06.341Z,13.90
2022-07-27T02:59:36.835Z,13.89
2022-07-27T03:02:05.554Z,13.91
2022-07-27T03:04:35.452Z,13.93
2022-07-27T03:07:04.322Z,13.89
2022-07-27T03:09:33.728Z,13.90
2022-07-27T03:12:02.878Z,13.94
2022-07-27T03:14:33.172Z,13.98
2022-07-27T03:17:02.528Z,13.99
2022-07-27T03:19:31.951Z,14.00
2022-07-27T03:22:01.124Z,13.97
2022-07-27T03:24:30.318Z,14.03
2022-07-27T03:26:59.254Z,14.00
2022-07-27T03:29:29.454Z,14.02
2022-07-27T03:32:08.903Z,14.01
2022-07-27T03:34:37.738Z,14.03
2022-07-27T03:37:07.826Z,14.01
2022-07-27T03:39:37.756Z,14.04
2022-07-27T03:42:08.010Z,14.02
2022-07-27T03:44:37.364Z,14.04
2022-07-27T03:47:08.886Z,14.03
2022-07-27T03:49:38.023Z,14.05
2022-07-27T03:52:07.362Z,14.07
2022-07-27T03:54:39.512Z,14.07
2022-07-27T03:57:14.805Z,14.08
2022-07-27T03:59:43.899Z,14.07
2022-07-27T04:02:19.777Z,14.10
2022-07-27T04:04:48.799Z,14.08
2022-07-27T04:07:17.898Z,14.11
2022-07-27T04:09:47.282Z,14.14
2022-07-27T04:12:17.363Z,14.16
2022-07-27T04:14:49.297Z,14.20
2022-07-27T04:17:56.035Z,14.19
2022-07-27T04:20:10.692Z,14.23
2022-07-27T04:22:39.518Z,14.22
2022-07-27T04:25:09.465Z,14.16
2022-07-27T04:27:38.360Z,14.09
2022-07-27T04:30:09.939Z,14.09
2022-07-27T04:32:43.380Z,14.05
2022-07-27T04:35:15.599Z,14.07
2022-07-27T04:37:57.897Z,14.09
2022-07-27T04:40:34.307Z,14.17
2022-07-27T04:43:13.030Z,14.23
2022-07-27T04:45:42.857Z,14.30
2022-07-27T04:48:14.143Z,14.42
2022-07-27T04:50:47.245Z,14.51
2022-07-27T04:53:17.633Z,14.56
2022-07-27T04:55:48.355Z,14.51
2022-07-27T04:58:17.892Z,14.50
2022-07-27T05:00:46.736Z,14.50
2022-07-27T05:03:17.274Z,14.51
2022-07-27T05:05:49.883Z,14.49
2022-07-27T05:08:20.885Z,14.41
2022-07-27T05:10:50.212Z,14.24
2022-07-27T05:13:18.967Z,14.04
2022-07-27T05:15:54.502Z,13.91
2022-07-27T05:18:26.877Z,13.78
2022-07-27T05:20:55.673Z,13.78
2022-07-27T05:23:25.136Z,13.77
2022-07-27T05:25:54.228Z,13.86
2022-07-27T05:28:23.120Z,13.87
2022-07-27T05:30:52.099Z,13.84
2022-07-27T05:33:21.319Z,13.85
2022-07-27T05:35:53.425Z,13.94
2022-07-27T05:38:22.530Z,14.15
2022-07-27T05:40:53.696Z,14.24
2022-07-27T05:43:23.201Z,14.24
2022-07-27T05:45:52.144Z,14.29
2022-07-27T05:48:22.073Z,14.32
2022-07-27T05:50:52.399Z,14.35
2022-07-27T05:53:22.952Z,14.44
2022-07-27T05:55:59.381Z,14.50
2022-07-27T05:58:30.447Z,14.63
2022-07-27T06:00:59.861Z,14.77
2022-07-27T06:03:28.872Z,14.92
2022-07-27T06:06:13.695Z,15.07
2022-07-27T06:08:42.912Z,15.20
2022-07-27T06:11:11.648Z,15.32
2022-07-27T06:13:42.117Z,15.35
2022-07-27T06:16:12.445Z,15.30
2022-07-27T06:18:41.957Z,15.44
2022-07-27T06:21:12.173Z,15.35
2022-07-27T06:23:41.378Z,15.24
2022-07-27T06:26:10.600Z,15.18
2022-07-27T06:28:39.853Z,15.19
2022-07-27T06:31:09.014Z,15.16
2022-07-27T06:33:39.009Z,15.23
2022-07-27T06:36:09.153Z,15.29
2022-07-27T06:38:39.956Z,15.32
2022-07-27T06:41:09.719Z,15.22
2022-07-27T06:43:39.059Z,15.34
2022-07-27T06:46:08.043Z,15.39
2022-07-27T06:48:40.503Z,15.46
2022-07-27T06:51:10.897Z,15.54
2022-07-27T06:53:41.411Z,15.66
2022-07-27T06:56:10.201Z,15.84
2022-07-27T06:58:39.605Z,15.95
2022-07-27T07:01:08.495Z,16.02
2022-07-27T07:03:37.598Z,16.11
2022-07-27T07:06:08.262Z,16.25
2022-07-27T07:08:37.448Z,16.44
2022-07-27T07:11:09.692Z,16.74
2022-07-27T07:13:43.247Z,16.63
2022-07-27T07:16:13.946Z,17.22
2022-07-27T07:18:43.300Z,17.25
2022-07-27T07:21:12.263Z,16.64
2022-07-27T07:23:41.239Z,16.68
2022-07-27T07:26:11.623Z,16.43
2022-07-27T07:28:40.621Z,17.00
2022-07-27T07:31:10.309Z,16.56
2022-07-27T07:33:39.296Z,16.64
2022-07-27T07:36:13.147Z,17.38
2022-07-27T07:38:43.740Z,17.74
2022-07-27T07:41:14.778Z,17.38
2022-07-27T07:43:43.981Z,16.99
2022-07-27T07:46:12.712Z,16.90
2022-07-27T07:48:43.622Z,16.47
2022-07-27T07:51:13.263Z,16.35
2022-07-27T07:53:42.355Z,16.29
2022-07-27T07:56:11.160Z,16.18
2022-07-27T07:58:43.433Z,16.09
2022-07-27T08:01:13.450Z,16.15
2022-07-27T08:03:45.091Z,16.11
2022-07-27T08:06:17.628Z,16.22
2022-07-27T08:08:46.525Z,16.32
2022-07-27T08:11:15.758Z,16.43
2022-07-27T08:13:46.243Z,16.31
2022-07-27T08:16:15.502Z,16.51
2022-07-27T08:18:44.489Z,16.69
2022-07-27T08:21:16.440Z,16.83
2022-07-27T08:23:45.373Z,17.01
2022-07-27T08:26:14.592Z,17.51
2022-07-27T08:28:45.378Z,17.47
2022-07-27T08:31:18.922Z,17.54
2022-07-27T08:33:53.701Z,18.09
2022-07-27T08:36:22.461Z,17.68
2022-07-27T08:38:51.388Z,18.22
2022-07-27T08:41:26.621Z,17.68
2022-07-27T08:44:00.264Z,17.49
2022-07-27T08:46:30.346Z,17.40
2022-07-27T08:49:00.446Z,17.41
2022-07-27T08:51:30.529Z,17.33
2022-07-27T08:54:00.727Z,16.94
2022-07-27T08:56:30.540Z,17.15
2022-07-27T08:59:00.985Z,17.57
2022-07-27T09:01:32.859Z,17.98
2022-07-27T09:04:01.838Z,18.31
2022-07-27T09:06:53.193Z,18.16
2022-07-27T09:09:24.235Z,17.95
2022-07-27T09:12:07.846Z,18.66
2022-07-27T09:14:41.027Z,18.89
2022-07-27T09:17:48.067Z,18.11
2022-07-27T09:20:19.338Z,18.11
2022-07-27T09:22:52.684Z,18.36
2022-07-27T09:25:45.263Z,18.70
2022-07-27T09:28:19.184Z,19.35
2022-07-27T09:31:12.105Z,20.62
2022-07-27T09:41:02.030Z,20.11
2022-07-27T09:46:41.790Z,21.38
2022-07-27T09:49:33.456Z,21.20
2022-07-27T09:52:07.745Z,21.43
2022-07-27T09:54:47.651Z,21.84
2022-07-27T09:57:18.895Z,21.11
2022-07-27T09:59:48.225Z,21.14
2022-07-27T10:02:18.620Z,20.36
2022-07-27T10:04:49.575Z,19.91
2022-07-27T10:07:22.566Z,19.31
2022-07-27T10:09:52.626Z,20.20
2022-07-27T10:12:21.677Z,19.77
2022-07-27T10:14:52.386Z,18.96
2022-07-27T10:17:23.449Z,19.04
2022-07-27T10:19:52.728Z,19.30
2022-07-27T10:22:57.092Z,19.09
2022-07-27T10:25:36.479Z,19.45
2022-07-27T10:28:20.577Z,21.00
2022-07-27T10:30:54.530Z,20.77
2022-07-27T10:33:52.441Z,20.56
2022-07-27T10:36:51.134Z,20.45
2022-07-27T10:39:36.743Z,20.10
2022-07-27T10:42:28.837Z,20.16
2022-07-27T10:45:09.033Z,20.82
2022-07-27T10:47:43.602Z,20.69
2022-07-27T10:50:32.225Z,19.70
2022-07-27T10:53:11.042Z,19.32
2022-07-27T10:55:46.253Z,19.65
2022-07-27T10:58:51.908Z,20.56
2022-07-27T11:01:24.748Z,20.66
2022-07-27T11:03:54.454Z,20.73
2022-07-27T11:06:51.724Z,21.16
2022-07-27T11:12:14.412Z,21.95
2022-07-27T11:14:49.641Z,22.13
2022-07-27T11:20:15.877Z,21.55
2022-07-27T11:23:49.528Z,19.91
2022-07-27T11:25:37.411Z,19.50
2022-07-27T11:28:08.628Z,20.01
2022-07-27T11:30:37.970Z,21.39
2022-07-27T11:33:10.254Z,21.55
2022-07-27T11:35:39.093Z,22.25
2022-07-27T11:38:12.545Z,22.39
2022-07-27T11:41:03.055Z,21.75
2022-07-27T11:43:45.632Z,22.76
2022-07-27T11:46:23.033Z,23.24
2022-07-27T11:49:09.322Z,22.23
2022-07-27T11:51:40.822Z,20.48
2022-07-27T11:54:13.708Z,20.87
2022-07-27T11:56:48.440Z,21.78
2022-07-27T11:59:20.510Z,22.50
2022-07-27T12:01:58.834Z,22.42
2022-07-27T12:04:30.367Z,20.45
2022-07-27T12:07:04.914Z,20.01
2022-07-27T12:09:40.684Z,19.65
2022-07-27T12:12:16.216Z,19.33
2022-07-27T12:14:49.023Z,19.47
2022-07-27T12:17:22.065Z,19.81
2022-07-27T12:20:02.132Z,20.21
2022-07-27T12:22:38.251Z,20.15
2022-07-27T12:25:16.389Z,20.90
2022-07-27T12:27:58.493Z,21.00
2022-07-27T12:30:33.530Z,20.45
2022-07-27T12:33:03.522Z,20.74
2022-07-27T12:35:38.103Z,20.34
2022-07-27T12:38:10.899Z,20.15
2022-07-27T12:41:00.501Z,19.89
2022-07-27T12:43:32.357Z,20.56
2022-07-27T12:46:13.340Z,21.30
2022-07-27T12:48:44.386Z,21.18
2022-07-27T12:51:13.236Z,21.32
2022-07-27T12:53:42.029Z,20.64
2022-07-27T12:56:12.562Z,20.89
2022-07-27T12:58:41.575Z,21.16
2022-07-27T13:01:10.424Z,20.77
2022-07-27T13:03:39.420Z,21.08
2022-07-27T13:06:12.983Z,21.28
2022-07-27T13:08:43.894Z,21.50
2022-07-27T13:11:14.297Z,21.71
2022-07-27T13:13:46.170Z,21.56
2022-07-27T13:16:15.132Z,21.86
2022-07-27T13:18:44.061Z,20.38
2022-07-27T13:21:13.200Z,19.71
2022-07-27T13:23:42.316Z,20.15
2022-07-27T13:26:11.631Z,20.20
2022-07-27T13:28:42.089Z,20.10
2022-07-27T13:31:10.878Z,19.81
2022-07-27T13:33:40.257Z,19.57
2022-07-27T13:36:10.089Z,19.39
2022-07-27T13:38:39.170Z,19.08
2022-07-27T13:41:08.242Z,19.02
2022-07-27T13:43:37.355Z,19.26
2022-07-27T13:46:10.617Z,19.84
2022-07-27T13:48:39.646Z,20.22
2022-07-27T13:51:08.941Z,20.44
2022-07-27T13:53:37.906Z,21.92
2022-07-27T13:56:07.646Z,23.27
2022-07-27T13:58:38.334Z,23.45
2022-07-27T14:01:09.260Z,22.56
2022-07-27T14:03:38.717Z,21.63
2022-07-27T14:06:09.022Z,21.09
2022-07-27T14:08:38.298Z,20.76
2022-07-27T14:11:08.057Z,20.38
2022-07-27T14:13:37.456Z,19.12
2022-07-27T14:16:09.199Z,19.03
2022-07-27T14:18:38.874Z,19.38
2022-07-27T14:21:09.522Z,19.40
2022-07-27T14:23:42.132Z,19.60
2022-07-27T14:26:11.509Z,19.99
2022-07-27T14:28:43.406Z,20.83
2022-07-27T14:31:14.717Z,21.95
2022-07-27T14:33:43.896Z,21.02
2022-07-27T14:36:13.579Z,20.67
2022-07-27T14:38:44.382Z,20.58
2022-07-27T14:41:13.516Z,20.25
2022-07-27T14:43:42.585Z,20.14
2022-07-27T14:46:13.056Z,20.52
2022-07-27T14:49:05.319Z,20.16
2022-07-27T14:51:32.058Z,19.74
2022-07-27T14:54:00.828Z,19.61
2022-07-27T14:56:29.673Z,20.29
2022-07-27T14:58:58.655Z,19.93
2022-07-27T15:01:30.895Z,19.79
2022-07-27T15:03:59.695Z,19.72
2022-07-27T15:06:28.978Z,19.30
2022-07-27T15:08:58.401Z,18.65
2022-07-27T15:11:27.695Z,18.31
2022-07-27T15:13:57.873Z,18.50
2022-07-27T15:16:29.570Z,18.57
2022-07-27T15:18:58.748Z,18.94
2022-07-27T15:21:27.615Z,18.87
2022-07-27T15:23:56.828Z,18.95
2022-07-27T15:26:26.164Z,19.02
2022-07-27T15:28:57.314Z,19.07
2022-07-27T15:31:29.851Z,19.25
2022-07-27T15:33:58.769Z,18.85
2022-07-27T15:36:33.278Z,18.86
2022-07-27T15:39:05.677Z,18.90
2022-07-27T15:41:37.225Z,19.13
2022-07-27T15:44:06.749Z,19.39
2022-07-27T15:46:40.310Z,19.88
2022-07-27T15:49:10.420Z,21.13
2022-07-27T15:51:40.156Z,22.56
2022-07-27T15:54:09.201Z,23.25
2022-07-27T15:56:38.581Z,23.98
2022-07-27T15:59:07.714Z,23.69
2022-07-27T16:01:39.181Z,22.96
2022-07-27T16:04:09.943Z,22.40
2022-07-27T16:06:39.632Z,21.02
2022-07-27T16:09:10.782Z,19.91
2022-07-27T16:11:41.075Z,19.54
2022-07-27T16:14:10.601Z,19.59
2022-07-27T16:16:41.135Z,19.52
2022-07-27T16:19:14.348Z,19.59
2022-07-27T16:21:53.659Z,19.84
2022-07-27T16:24:29.113Z,19.58
2022-07-27T16:27:01.673Z,19.20
2022-07-27T16:29:33.514Z,18.95
2022-07-27T16:32:04.388Z,18.79
2022-07-27T16:34:40.095Z,18.77
2022-07-27T16:37:12.977Z,18.61
2022-07-27T16:39:44.828Z,19.25
2022-07-27T16:42:14.015Z,20.82
2022-07-27T16:44:43.111Z,21.08
2022-07-27T16:47:13.458Z,20.64
2022-07-27T16:49:42.853Z,20.24
2022-07-27T16:52:14.000Z,19.43
2022-07-27T16:54:43.343Z,18.83
2022-07-27T16:57:12.319Z,18.72
2022-07-27T16:59:43.283Z,18.59
2022-07-27T17:02:14.007Z,18.52
2022-07-27T17:04:43.864Z,18.71
2022-07-27T17:07:13.062Z,18.80
2022-07-27T17:09:43.218Z,18.47
2022-07-27T17:12:17.155Z,18.33
2022-07-27T17:14:47.425Z,18.63
2022-07-27T17:17:18.154Z,19.59
2022-07-27T17:19:47.406Z,20.50
2022-07-27T17:22:16.901Z,19.50
2022-07-27T17:24:47.690Z,18.50
2022-07-27T17:27:16.520Z,18.03
2022-07-27T17:29:46.589Z,17.70
2022-07-27T17:32:17.238Z,17.49
2022-07-27T17:34:50.168Z,17.32
2022-07-27T17:37:20.024Z,17.21
2022-07-27T17:39:50.355Z,17.15
2022-07-27T17:42:23.458Z,17.16
2022-07-27T17:44:54.257Z,17.15
2022-07-27T17:47:27.631Z,17.16
2022-07-27T17:49:57.902Z,17.14
2022-07-27T17:52:27.654Z,17.11
2022-07-27T17:54:58.804Z,17.02
2022-07-27T17:57:28.263Z,16.97
2022-07-27T17:59:57.656Z,16.90
2022-07-27T18:02:29.434Z,16.87
2022-07-27T18:05:00.254Z,16.82
2022-07-27T18:07:29.539Z,16.78
2022-07-27T18:10:10.611Z,16.74
2022-07-27T18:12:39.790Z,16.65
2022-07-27T18:15:28.034Z,16.62
2022-07-27T18:17:58.212Z,16.53
2022-07-27T18:20:27.634Z,16.54
2022-07-27T18:22:56.544Z,16.52
2022-07-27T18:25:25.826Z,16.56
2022-07-27T18:27:55.941Z,16.54
2022-07-27T18:30:24.965Z,16.50
2022-07-27T18:32:54.162Z,16.47
2022-07-27T18:35:25.716Z,16.43
2022-07-27T18:37:58.945Z,16.44
2022-07-27T18:40:28.980Z,16.37
2022-07-27T18:42:58.243Z,16.29
2022-07-27T18:45:34.750Z,16.33
2022-07-27T18:48:03.967Z,16.28
2022-07-27T18:50:45.657Z,16.23
2022-07-27T18:53:18.553Z,16.21
2022-07-27T18:55:57.171Z,16.15
2022-07-27T18:58:27.836Z,16.10
2022-07-27T19:00:58.552Z,16.04
2022-07-27T19:03:28.891Z,15.99
2022-07-27T19:05:59.776Z,16.00
2022-07-27T19:08:28.897Z,15.96
2022-07-27T19:10:58.030Z,15.90
2022-07-27T19:13:30.762Z,15.91
2022-07-27T19:16:02.361Z,15.87
2022-07-27T19:18:31.993Z,15.86
2022-07-27T19:21:02.353Z,15.78
2022-07-27T19:23:31.247Z,15.70
2022-07-27T19:26:00.733Z,15.64
2022-07-27T19:28:33.457Z,15.62
2022-07-27T19:31:02.760Z,15.59
2022-07-27T19:33:32.006Z,15.60
2022-07-27T19:36:04.055Z,15.61
2022-07-27T19:38:36.982Z,15.60
2022-07-27T19:41:06.267Z,15.56
2022-07-27T19:43:35.420Z,15.53
2022-07-27T19:46:04.358Z,15.55
2022-07-27T19:48:33.378Z,15.54
2022-07-27T19:51:07.020Z,15.57
2022-07-27T19:53:36.647Z,15.57
2022-07-27T19:56:06.621Z,15.63
2022-07-27T19:58:35.615Z,15.64
2022-07-27T20:01:04.834Z,15.63
2022-07-27T20:03:52.529Z,15.68
2022-07-27T20:06:28.467Z,15.63
2022-07-27T20:09:00.056Z,15.64
2022-07-27T20:11:30.895Z,15.60
2022-07-27T20:14:02.965Z,15.64
2022-07-27T20:16:34.488Z,15.64
2022-07-27T20:19:03.874Z,15.63
2022-07-27T20:21:36.726Z,15.65
2022-07-27T20:24:05.996Z,15.66
2022-07-27T20:26:35.377Z,15.66
2022-07-27T20:29:05.481Z,15.70
2022-07-27T20:31:36.437Z,15.67
2022-07-27T20:34:08.310Z,15.65
2022-07-27T20:36:41.922Z,15.60
2022-07-27T20:39:15.321Z,15.53
2022-07-27T20:41:46.519Z,15.52
2022-07-27T20:44:15.857Z,15.46
2022-07-27T20:46:46.327Z,15.34
2022-07-27T20:49:16.535Z,15.24
2022-07-27T20:51:47.613Z,15.13
2022-07-27T20:54:16.564Z,15.03
2022-07-27T20:56:45.928Z,14.91
2022-07-27T20:59:16.695Z,14.88
2022-07-27T21:01:46.604Z,14.84
2022-07-27T21:04:15.750Z,14.85
2022-07-27T21:06:44.618Z,14.93
2022-07-27T21:09:15.547Z,14.96
2022-07-27T21:11:45.201Z,15.05
2022-07-27T21:14:14.564Z,15.07
2022-07-27T21:16:43.805Z,15.13
2022-07-27T21:19:13.510Z,15.12
2022-07-27T21:21:44.013Z,15.15
2022-07-27T21:24:18.404Z,15.09
2022-07-27T21:26:53.166Z,15.06
2022-07-27T21:29:23.991Z,15.08
2022-07-27T21:31:53.349Z,15.11
2022-07-27T21:34:23.383Z,15.07
2022-07-27T21:36:52.806Z,15.10
2022-07-27T21:39:24.288Z,15.05
2022-07-27T21:41:57.197Z,15.06
2022-07-27T21:44:28.921Z,15.02
2022-07-27T21:46:58.383Z,15.06
2022-07-27T21:49:34.164Z,15.02
2022-07-27T21:52:04.115Z,14.98
2022-07-27T21:54:34.461Z,14.93
2022-07-27T21:57:03.332Z,14.90
2022-07-27T21:59:32.515Z,14.89
2022-07-27T22:02:01.932Z,14.87
2022-07-27T22:04:30.928Z,14.82
2022-07-27T22:07:00.939Z,14.83
2022-07-27T22:09:30.172Z,14.80
2022-07-27T22:12:00.879Z,14.84
2022-07-27T22:14:30.496Z,14.80
2022-07-27T22:17:00.594Z,14.82
2022-07-27T22:19:30.644Z,14.81
2022-07-27T22:21:59.822Z,14.78
2022-07-27T22:24:28.681Z,14.82
2022-07-27T22:27:00.209Z,14.79
2022-07-27T22:29:29.394Z,14.76
2022-07-27T22:31:58.471Z,14.75
2022-07-27T22:34:30.657Z,14.69
2022-07-27T22:37:00.823Z,14.71
2022-07-27T22:39:30.145Z,14.66
2022-07-27T22:42:00.712Z,14.62
2022-07-27T22:44:29.592Z,14.56
2022-07-27T22:46:58.848Z,14.49
2022-07-27T22:49:28.311Z,14.43
2022-07-27T22:51:58.020Z,14.34
2022-07-27T22:54:27.037Z,14.25
2022-07-27T22:56:56.266Z,14.19
2022-07-27T22:59:27.098Z,14.06
2022-07-27T23:01:56.886Z,13.90
2022-07-27T23:04:26.202Z,13.73
2022-07-27T23:06:56.730Z,13.55
2022-07-27T23:09:26.637Z,13.38
2022-07-27T23:11:56.743Z,13.23
2022-07-27T23:14:27.684Z,13.08
2022-07-27T23:16:56.802Z,12.96
2022-07-27T23:19:26.225Z,12.88
2022-07-27T23:22:01.130Z,12.80
2022-07-27T23:24:31.217Z,12.70
2022-07-27T23:27:00.519Z,12.55
2022-07-27T23:29:34.583Z,12.41
2022-07-27T23:32:04.855Z,12.33
2022-07-27T23:34:35.722Z,12.31
2022-07-27T23:37:04.627Z,12.27
2022-07-27T23:39:33.368Z,12.24
2022-07-27T23:42:03.221Z,12.28
2022-07-27T23:44:33.877Z,12.27
2022-07-27T23:47:03.039Z,12.55
2022-07-27T23:49:32.448Z,12.71
2022-07-27T23:52:03.102Z,12.63
2022-07-27T23:54:32.556Z,12.51
2022-07-27T23:57:01.441Z,12.40
2022-07-27T23:59:30.060Z,12.45
